Littleton, West Virginia
Current Conditions -  °F | °C
As of 5:53 AM on Tuesday 21 Oct 2014 (Local Time) from KCKB Reporting Station
Overcast Overcast  
Wind Chill: 51°   Ceiling: 1700
Heat Index: 51°   Visibility: 10mi
Dew Point: 48°   Wind: 5mph
Humidity: 89%   Direction: 210°SSW
Pressure: 29.88"   Gusts: NA
Location:  39.7°N, 80.52°W
Report Text: KCKB 210953Z AUTO 21004KT 10SM OVC017 11/09 A2988 RMK AO2 SLP114 T01060089 TSNO $
Loading
Personal Weather Stations






























Interactive Weather Map New forecast layout! Learn more

10-Day Weather Forecast

Advertisements
Track Severe Weather on mobile